x

Virginia Beach 64 Nm East Of Virginia Beach, Va (44014) Wave Buoy

11:50am - Thu 26th May 2016 All times are EDT. -4 hours from GMT.

  • Sig Wave height 2.3ft
  • Swell Direction
  • Peak Period 4s
  • Average Period 4s
  • Wind
    11mph
  • Sea Temp 58°f
  • Air Temp 64°f
  • Sea Pressure 1021.8mb
  • Virginia Beach 64 Nm East Of Virginia Beach, Va
  • Virginia Beach 64 Nm East Of Virginia Beach, Va

More Historic Weather Station data

Upgrade to MSW Pro to gain access to the past 30 days of data for over 8000 Wavebouys and Weather Stations around the globe.

Join Pro

Comparision Forecast

View Surf forecast
   
Thu 05/26 11:50am 2.5ft 4s 4s 11
mph
1021.8mb 58f 64f
10:50am 2.5ft 8s 5s 9 11 mph 1021.9mb 58f 63f
9:50am 2.5ft 4s 4s 9 11 mph 1022.2mb 58f 63f
8:50am 2.5ft 9s 5s 11
mph
1022.5mb 58f 63f
7:50am 2.5ft 9s 5s 11 13 mph 1022.5mb 58f 63f
6:50am 2.5ft 8s 5s 13 16 mph 1022.1mb 58f 63f
5:50am 2.5ft 9s 5s 11 13 mph 1021.6mb 58f 63f
4:50am 2.5ft 9s 4s 13 16 mph 1021.1mb 57f 64f
3:50am 2.5ft 9s 4s 11 13 mph 1021mb 57f 63f
2:50am 2.5ft 9s 4s 11 13 mph 1021.2mb 58f 63f
1:50am 2.5ft 8s 4s 13 16 mph 1021.3mb 58f 63f
12:50am 3ft 8s 4s 11 13 mph 1021.2mb 58f 64f
Wed 05/25 11:50pm 3ft 9s 4s 13 16 mph 1021.1mb 59f 65f
10:50pm 2.5ft 8s 4s 13 16 mph 1021.3mb 60f 65f
9:50pm 2.5ft 8s 4s 13
mph
1021.1mb 60f 65f
8:50pm 2.5ft 9s 5s 9 11 mph 1020.5mb 60f 65f
7:50pm 2ft 8s 5s 9 11 mph 1020.7mb 61f 66f
6:50pm 2.5ft 8s 5s 7 9 mph 1020.9mb 61f 66f
5:50pm 2.5ft 9s 5s 7
mph
1021.1mb 61f 65f
4:50pm 2.5ft 8s 5s 9 11 mph 1021.3mb 60f 65f
3:50pm 2.5ft 9s 5s 7
mph
1021.5mb 61f 65f
2:50pm 2.5ft 8s 5s 4 7 mph 1021.8mb 61f 64f
1:50pm 2.5ft 9s 5s 4
mph
1022mb 60f 62f
12:50pm 2.5ft 6s 5s 7
mph
1022mb 59f 62f
11:50am 2.5ft 9s 5s 7 9 mph 1022.1mb 58f 61f
10:50am 3ft 6s 5s 4 7 mph 1022.1mb 57f 60f
9:50am 2.5ft 5s 5s 7 9 mph 1022mb 57f 60f
8:50am 2.5ft 5s 5s 7 9 mph 1021.7mb 56f 61f
7:50am 2.5ft 9s 5s 9
mph
1021.2mb 56f 61f
6:50am 3ft 5s 5s 9 11 mph 1020.8mb 56f 61f
5:50am 3ft 6s 5s 11 13 mph 1020.2mb 56f 61f
4:50am 3.5ft 6s 5s 11 13 mph 1019.8mb 56f 61f
3:50am 3.5ft 5s 5s 13
mph
1019.7mb 56f 62f
2:50am 3.5ft 5s 5s 13
mph
1019.5mb 56f 61f
1:50am 3.5ft 5s 5s 13 16 mph 1019.2mb 56f 61f
12:50am 3.5ft 9s 5s 11 13 mph 1019.2mb 56f 62f
Tue 05/24 11:50pm 3ft 9s 5s 13 16 mph 1019.1mb 56f 62f
10:50pm 3ft 9s 5s 11 13 mph 1019.2mb 56f 62f
9:50pm 3ft 8s 5s 9
mph
1018.7mb 56f 63f
8:50pm 2.5ft 8s 5s 9
mph
1018mb 56f 63f
7:50pm 3ft 9s 5s 9 11 mph 1017.7mb 57f 63f
6:50pm 2.5ft 9s 5s 9
mph
1017.5mb 57f 62f
5:50pm 3ft 9s 5s 11
mph
1017.1mb 57f 62f
4:50pm 3ft 8s 5s 9
mph
1016.9mb 57f 62f
3:50pm 3.5ft 8s 5s 11 13 mph 1016.8mb 57f 62f
2:50pm 3.5ft 9s 5s 11 13 mph 1017mb 57f 61f
1:50pm 3.5ft 10s 5s 11 13 mph 1017.1mb 57f 60f
12:50pm 3.5ft 10s 5s 13 16 mph 1017.2mb 57f 60f
11:50am 3.5ft 9s 5s 13 16 mph 1017mb 56f 59f
10:50am 4ft 9s 6s 13 16 mph 1016.6mb 56f 59f
9:50am 4.5ft 9s 7s 16 18 mph 1016.4mb 56f 59f
8:50am 4.5ft 10s 7s 11 13 mph 1016.2mb 56f 58f
7:50am 4.5ft 9s 7s 9 11 mph 1016mb 56f 58f
6:50am 5ft 11s 7s 9 11 mph 1015.3mb 56f 58f
5:50am 5ft 9s 7s 7 9 mph 1014.9mb 57f 57f
4:50am 5.5ft 8s 7s 9 11 mph 1014.2mb 57f 57f
3:50am 5.5ft 10s 6s 7 9 mph 1013.7mb 58f 57f
2:50am 5.5ft 9s 6s 11 13 mph 1013.3mb 59f 57f
1:50am 5.5ft 9s 6s 13 16 mph 1013.2mb 62f 57f
12:50am 6.5ft 9s 6s 13 16 mph 1013.5mb 66f 57f
Mon 05/23 11:50pm 7ft 9s 6s 16 20 mph 1013.3mb 69f 57f
10:50pm 6.5ft 9s 6s 18 22 mph 1013mb 69f 57f
9:50pm 7ft 9s 6s 18 22 mph 1012.7mb 66f 57f
8:50pm 8ft 9s 6s 18 20 mph 1011.7mb 62f 56f
7:50pm 8ft 9s 6s 16 20 mph 1011mb 59f 57f
6:50pm 7.5ft 9s 6s 18 22 mph 1010.7mb 58f 56f
5:50pm 8ft 8s 6s 20 25 mph 1010.6mb 57f 55f
4:50pm 7ft 9s 6s 22 25 mph 1010.6mb 57f 56f
3:50pm 7ft 9s 6s 20 25 mph 1010.7mb 58f 56f
2:50pm 7ft 9s 6s 18 22 mph 1010.8mb 60f 56f
1:50pm 6.5ft 8s 5s 20 22 mph 1010.2mb 62f 57f
12:50pm 7ft 8s 6s 20 25 mph 1010.1mb 68f 57f
11:50am 6ft 7s 5s 22 27 mph 1010.2mb 69f 58f
10:50am 5.5ft 8s 5s 20 25 mph 1009.9mb 69f 58f
9:50am 4.5ft 8s 5s 18 22 mph 1010mb 70f 58f
8:50am 4.5ft 8s 5s 20 22 mph 1009.4mb 70f 58f
7:50am 4.5ft 8s 6s 18 20 mph 1008.9mb 69f 58f
6:50am 4.5ft 9s  -  13 16 mph 1009mb 68f 58f
5:50am 4ft 7s 6s 16 18 mph 1008.3mb 67f 57f
4:50am 4.5ft 8s 6s 13 16 mph 1008.5mb 67f 57f
3:50am 4.5ft 9s 6s 16 18 mph 1008.4mb 69f 56f
2:50am 4.5ft 8s 5s 16 18 mph 1008.7mb 69f 56f
1:50am 4.5ft 9s 6s 16 18 mph 1009.1mb 70f 56f
12:50am 4.5ft 9s 5s 16 20 mph 1009.3mb 71f 56f
Sun 05/22 11:50pm 4.5ft 9s 5s 16 20 mph 1009.4mb 71f 56f
10:50pm 4.5ft 9s 5s 16 18 mph 1009.4mb 71f 57f
9:50pm 5ft 9s 6s 18 22 mph 1009.5mb 71f 57f
8:50pm 4.5ft 8s 5s 18 20 mph 1009.3mb 71f 57f
7:50pm 4.5ft 9s 5s 20 22 mph 1009.2mb 69f 57f
6:50pm 4.5ft 9s 5s 20 22 mph 1008.5mb 69f 57f
5:50pm 4.5ft 9s 5s 18 22 mph 1008.5mb 62f 57f